»·PEaware :: N232WP KEUG-KOTH

N232WP :: KEUG-KOTH

FLIGHT INFORMATION

Flight Status: Arrived
Operator: Privately registered:
United States
More flights under this callsign
Pilot: Walter P. (10403)
Aircraft: BEECH AIRCRAFT BARON
(BE58)
More flights by this aircraft type
Origin: KEUG Mahlon Sweet
United States
Destination: KOTH North Bend Mun
United States
More flights between these airports :: More routes between these airports
Route: +EUG9 EUG V121 OTH
File this flight plan on PilotEdge
Remarks:
Altitude:
(Current/Filed)
6,000ft
Speed:
(Current/Filed)
170kts
Departed: 25-Apr-18 02:51 PM
Arrived: 25-Apr-18 03:33 PM
Distance/Time
Traveled:
61nm/0:42
Distance/Time
To Go:
Arrived

Flight Plot

Page will automatically refresh every two minutes.

Flight plan parsing failed; only flown route is shown


Map Options




Map Legend


Flown Route
Filed Route
Departure Airport
Arrival Airport
Navaid (VOR, NDB)
Fix

Horizontal Profiles

Position Reports

Time Latitude Longitude Heading Altitude Ground
Speed
25-Apr-18 14:30 44.121839 -123.212137 211 361ft 0kts
25-Apr-18 14:31 44.121839 -123.212137 211 361ft 0kts
25-Apr-18 14:32 44.121839 -123.212137 211 361ft 0kts
25-Apr-18 14:33 44.121839 -123.212137 211 361ft 0kts
25-Apr-18 14:34 44.121839 -123.212137 211 361ft 0kts
25-Apr-18 14:35 44.121839 -123.212137 211 361ft 0kts
25-Apr-18 14:36 44.121839 -123.212137 211 361ft 0kts
25-Apr-18 14:37 44.121839 -123.212137 211 361ft 0kts
25-Apr-18 14:38 44.121839 -123.212137 211 361ft 0kts
25-Apr-18 14:39 44.121839 -123.212137 211 361ft 0kts
25-Apr-18 14:40 44.121839 -123.212137 211 361ft 0kts
25-Apr-18 14:41 44.121839 -123.212137 211 361ft 0kts
25-Apr-18 14:42 44.121839 -123.212137 211 361ft 0kts
25-Apr-18 14:43 44.121839 -123.212137 211 361ft 0kts
25-Apr-18 14:44 44.121839 -123.212137 211 361ft 0kts
25-Apr-18 14:45 44.121839 -123.212137 211 361ft 0kts
25-Apr-18 14:46 44.120974 -123.214632 269 362ft 9kts
25-Apr-18 14:47 44.117189 -123.216917 179 364ft 22kts
25-Apr-18 14:48 44.114107 -123.217724 225 365ft 0kts
25-Apr-18 14:49 44.114013 -123.217851 223 365ft 6kts
25-Apr-18 14:50 44.128662 -123.218898 1 664ft 114kts
25-Apr-18 14:51 44.161782 -123.217357 359 2175ft 122kts
25-Apr-18 14:52 44.195843 -123.222435 356 3564ft 125kts
25-Apr-18 14:53 44.231785 -123.224225 356 4699ft 133kts
25-Apr-18 14:54 44.241548 -123.260909 234 5712ft 145kts
25-Apr-18 14:55 44.208135 -123.292637 199 5989ft 173kts
25-Apr-18 14:56 44.161016 -123.315679 195 5894ft 182kts
25-Apr-18 14:57 44.112423 -123.333280 195 5893ft 180kts
25-Apr-18 14:58 44.080068 -123.375612 251 6101ft 168kts
25-Apr-18 14:59 44.053655 -123.433802 231 6096ft 188kts
25-Apr-18 15:00 44.016671 -123.485902 224 6095ft 197kts
25-Apr-18 15:01 43.976483 -123.534901 222 6070ft 204kts
25-Apr-18 15:02 43.932657 -123.585864 221 6067ft 206kts
25-Apr-18 15:03 43.889169 -123.635538 220 6065ft 206kts
25-Apr-18 15:04 43.845700 -123.684462 220 6064ft 206kts
25-Apr-18 15:05 43.801350 -123.734618 220 6065ft 206kts
25-Apr-18 15:06 43.758597 -123.783007 221 6150ft 196kts
25-Apr-18 15:07 43.717010 -123.829993 221 6146ft 191kts
25-Apr-18 15:08 43.675957 -123.876477 221 6146ft 190kts
25-Apr-18 15:09 43.635264 -123.922370 221 6146ft 190kts
25-Apr-18 15:10 43.593546 -123.965634 218 6079ft 183kts
25-Apr-18 15:11 43.555266 -124.006416 222 5158ft 169kts
25-Apr-18 15:12 43.520194 -124.048521 226 3949ft 159kts
25-Apr-18 15:13 43.485516 -124.089532 224 2760ft 168kts
25-Apr-18 15:14 43.450004 -124.132421 223 2642ft 164kts
25-Apr-18 15:15 43.414851 -124.170577 217 2650ft 159kts
25-Apr-18 15:16 43.398291 -124.222923 254 2641ft 147kts
25-Apr-18 15:17 43.380298 -124.273210 228 2648ft 151kts
25-Apr-18 15:18 43.362357 -124.325112 258 2606ft 154kts
25-Apr-18 15:19 43.352204 -124.384812 258 2184ft 161kts
25-Apr-18 15:20 43.340584 -124.442867 246 1945ft 152kts
25-Apr-18 15:21 43.308347 -124.474106 196 1945ft 149kts
25-Apr-18 15:22 43.274490 -124.496713 253 1948ft 135kts
25-Apr-18 15:23 43.296481 -124.525703 14 1947ft 142kts
25-Apr-18 15:24 43.322459 -124.484575 59 1931ft 147kts
25-Apr-18 15:25 43.342724 -124.435665 58 1930ft 149kts
25-Apr-18 15:26 43.363314 -124.385897 59 1798ft 157kts
25-Apr-18 15:27 43.385271 -124.332312 58 1289ft 151kts
25-Apr-18 15:28 43.403683 -124.288482 54 541ft 128kts
25-Apr-18 15:29 43.432404 -124.255378 41 828ft 148kts
25-Apr-18 15:30 43.431833 -124.224193 203 426ft 97kts
25-Apr-18 15:31 43.419462 -124.249176 238 12ft 52kts
25-Apr-18 15:32 43.418110 -124.249365 63 16ft 16kts
25-Apr-18 15:33 43.416873 -124.246562 94 16ft 7kts

Navigation Log

Ident Type
Flight plan parsing failed, navigation log unavailable